createdAt,value
2023-02-13T00:00:11.615Z,2.38
2023-02-13T00:02:38.133Z,2.40
2023-02-13T00:05:04.786Z,2.31
2023-02-13T00:07:31.296Z,2.52
2023-02-13T00:09:57.833Z,2.81
2023-02-13T00:12:24.394Z,2.71
2023-02-13T00:14:50.949Z,2.89
2023-02-13T00:17:17.444Z,3.03
2023-02-13T00:19:45.356Z,2.88
2023-02-13T00:22:11.873Z,2.85
2023-02-13T00:24:38.406Z,2.87
2023-02-13T00:27:05.002Z,2.80
2023-02-13T00:29:31.457Z,2.86
2023-02-13T00:31:57.924Z,2.83
2023-02-13T00:34:24.400Z,2.90
2023-02-13T00:36:50.894Z,2.90
2023-02-13T00:39:17.457Z,2.78
2023-02-13T00:41:45.154Z,2.88
2023-02-13T00:44:11.909Z,2.91
2023-02-13T00:46:38.864Z,2.88
2023-02-13T00:49:05.876Z,2.91
2023-02-13T00:51:32.409Z,3.06
2023-02-13T00:53:59.077Z,3.09
2023-02-13T00:56:25.532Z,3.09
2023-02-13T00:58:51.990Z,3.22
2023-02-13T01:01:18.561Z,3.27
2023-02-13T01:03:45.221Z,3.33
2023-02-13T01:06:12.115Z,3.54
2023-02-13T01:08:40.424Z,3.64
2023-02-13T01:11:07.515Z,3.81
2023-02-13T01:13:33.995Z,3.88
2023-02-13T01:16:00.614Z,4.01
2023-02-13T01:18:27.592Z,3.94
2023-02-13T01:21:03.656Z,4.03
2023-02-13T01:23:35.423Z,4.08
2023-02-13T01:26:07.743Z,4.09
2023-02-13T01:28:34.752Z,4.19
2023-02-13T01:31:01.817Z,4.47
2023-02-13T01:33:29.062Z,4.44
2023-02-13T01:35:55.593Z,4.38
2023-02-13T01:38:22.098Z,4.65
2023-02-13T01:40:51.064Z,4.58
2023-02-13T01:43:18.459Z,4.49
2023-02-13T01:45:48.634Z,4.45
2023-02-13T01:48:26.398Z,4.62
2023-02-13T01:51:05.322Z,4.59
2023-02-13T01:53:37.804Z,4.65
2023-02-13T01:56:18.435Z,4.61
2023-02-13T01:58:49.468Z,4.68
2023-02-13T02:01:16.521Z,4.77
2023-02-13T02:03:49.398Z,4.67
2023-02-13T02:06:25.831Z,4.74
2023-02-13T02:08:55.299Z,4.75
2023-02-13T02:11:37.025Z,4.76
2023-02-13T02:14:04.038Z,4.79
2023-02-13T02:16:31.920Z,4.82
2023-02-13T02:18:58.925Z,4.90
2023-02-13T02:21:48.221Z,4.97
2023-02-13T02:24:26.119Z,4.84
2023-02-13T02:27:10.997Z,4.93
2023-02-13T02:29:46.258Z,4.97
2023-02-13T02:32:48.254Z,5.11
2023-02-13T02:35:33.234Z,5.14
2023-02-13T02:38:14.440Z,5.04
2023-02-13T02:40:52.110Z,5.04
2023-02-13T02:43:55.314Z,4.99
2023-02-13T02:46:32.251Z,5.03
2023-02-13T02:49:23.710Z,5.01
2023-02-13T02:51:50.206Z,5.00
2023-02-13T02:54:57.705Z,4.93
2023-02-13T02:57:49.801Z,4.98
2023-02-13T03:00:38.020Z,5.03
2023-02-13T03:03:31.624Z,5.00
2023-02-13T03:06:14.056Z,4.81
2023-02-13T03:09:01.767Z,4.90
2023-02-13T03:11:47.117Z,4.88
2023-02-13T03:14:20.014Z,4.87
2023-02-13T03:17:26.798Z,4.69
2023-02-13T03:20:20.296Z,4.66
2023-02-13T03:22:49.417Z,4.57
2023-02-13T03:25:36.132Z,4.57
2023-02-13T03:28:50.444Z,4.59
2023-02-13T03:32:01.435Z,4.52
2023-02-13T03:34:54.028Z,4.54
2023-02-13T03:37:47.292Z,4.47
2023-02-13T03:40:23.269Z,4.43
2023-02-13T03:43:12.435Z,4.49
2023-02-13T03:45:53.352Z,4.47
2023-02-13T03:48:45.559Z,4.50
2023-02-13T03:51:18.030Z,4.44
2023-02-13T03:53:46.966Z,4.40
2023-02-13T03:56:35.278Z,4.47
2023-02-13T03:59:18.678Z,4.36
2023-02-13T04:01:51.764Z,4.43
2023-02-13T04:04:31.629Z,4.35
2023-02-13T04:07:04.694Z,4.49
2023-02-13T04:09:33.882Z,4.49
2023-02-13T04:12:05.855Z,4.47
2023-02-13T04:14:40.709Z,4.41
2023-02-13T04:17:21.391Z,4.50
2023-02-13T04:19:48.106Z,4.52
2023-02-13T04:22:14.673Z,4.49
2023-02-13T04:24:41.377Z,4.57
2023-02-13T04:27:08.172Z,4.46
2023-02-13T04:29:34.694Z,4.53
2023-02-13T04:32:01.202Z,4.57
2023-02-13T04:34:27.728Z,4.45
2023-02-13T04:36:54.181Z,4.55
2023-02-13T04:39:20.628Z,4.49
2023-02-13T04:41:47.136Z,4.47
2023-02-13T04:44:13.600Z,4.49
2023-02-13T04:46:40.096Z,4.42
2023-02-13T04:49:06.635Z,4.48
2023-02-13T04:51:33.075Z,4.42
2023-02-13T04:53:59.505Z,4.37
2023-02-13T04:56:26.039Z,4.40
2023-02-13T04:58:52.577Z,4.38
2023-02-13T05:01:19.371Z,4.34
2023-02-13T05:03:45.985Z,4.38
2023-02-13T05:06:12.776Z,4.29
2023-02-13T05:08:39.649Z,4.21
2023-02-13T05:11:07.060Z,4.23
2023-02-13T05:13:33.940Z,4.34
2023-02-13T05:16:00.448Z,4.21
2023-02-13T05:18:27.028Z,4.27
2023-02-13T05:21:12.083Z,4.29
2023-02-13T05:23:38.550Z,4.28
2023-02-13T05:26:05.010Z,4.23
2023-02-13T05:28:49.966Z,4.25
2023-02-13T05:31:16.560Z,4.18
2023-02-13T05:33:43.103Z,4.19
2023-02-13T05:36:09.701Z,4.19
2023-02-13T05:38:36.357Z,4.36
2023-02-13T05:41:02.926Z,4.30
2023-02-13T05:43:29.901Z,4.28
2023-02-13T05:46:07.381Z,4.11
2023-02-13T05:48:34.229Z,4.17
2023-02-13T05:51:01.063Z,4.11
2023-02-13T05:53:28.026Z,4.09
2023-02-13T05:55:54.518Z,4.17
2023-02-13T05:58:21.715Z,4.14
2023-02-13T06:00:48.465Z,4.14
2023-02-13T06:03:15.388Z,4.05
2023-02-13T06:05:41.893Z,3.95
2023-02-13T06:08:08.408Z,3.91
2023-02-13T06:10:34.968Z,4.08
2023-02-13T06:13:01.439Z,4.16
2023-02-13T06:15:27.969Z,4.21
2023-02-13T06:17:54.553Z,4.12
2023-02-13T06:20:21.368Z,4.20
2023-02-13T06:22:51.905Z,4.07
2023-02-13T06:25:19.025Z,4.00
2023-02-13T06:27:45.622Z,4.08
2023-02-13T06:30:12.842Z,4.10
2023-02-13T06:32:39.441Z,3.98
2023-02-13T06:35:06.573Z,3.99
2023-02-13T06:37:33.558Z,3.95
2023-02-13T06:40:00.309Z,3.96
2023-02-13T06:42:26.908Z,4.00
2023-02-13T06:44:53.464Z,4.00
2023-02-13T06:47:20.047Z,4.04
2023-02-13T06:49:46.507Z,3.98
2023-02-13T06:52:13.076Z,4.05
2023-02-13T06:54:47.209Z,4.03
2023-02-13T06:57:15.689Z,4.15
2023-02-13T06:59:42.922Z,4.09
2023-02-13T07:02:11.588Z,4.00
2023-02-13T07:04:38.470Z,4.16
2023-02-13T07:07:05.335Z,4.18
2023-02-13T07:09:32.294Z,4.26
2023-02-13T07:11:59.124Z,4.38
2023-02-13T07:14:25.848Z,4.28
2023-02-13T07:16:55.359Z,4.29
2023-02-13T07:19:21.978Z,4.37
2023-02-13T07:21:48.487Z,4.36
2023-02-13T07:24:14.931Z,4.44
2023-02-13T07:26:41.372Z,4.47
2023-02-13T07:29:12.242Z,4.47
2023-02-13T07:31:39.972Z,4.66
2023-02-13T07:34:06.897Z,4.68
2023-02-13T07:36:33.637Z,4.88
2023-02-13T07:41:27.001Z,5.35
2023-02-13T07:43:54.501Z,5.52
2023-02-13T07:46:21.155Z,5.70
2023-02-13T07:48:47.746Z,6.04
2023-02-13T07:51:14.896Z,6.23
2023-02-13T07:53:41.430Z,6.44
2023-02-13T07:56:09.059Z,6.78
2023-02-13T07:58:36.505Z,7.12
2023-02-13T08:01:10.609Z,7.28
2023-02-13T08:03:37.242Z,7.33
2023-02-13T08:06:04.824Z,7.65
2023-02-13T08:08:31.612Z,7.78
2023-02-13T08:11:21.990Z,8.01
2023-02-13T08:13:48.490Z,8.39
2023-02-13T08:16:15.930Z,8.72
2023-02-13T08:18:42.436Z,8.96
2023-02-13T08:21:09.050Z,8.97
2023-02-13T08:23:35.765Z,8.78
2023-02-13T08:26:02.751Z,8.80
2023-02-13T08:28:30.127Z,9.52
2023-02-13T08:30:56.777Z,9.77
2023-02-13T08:33:23.338Z,9.96
2023-02-13T08:35:49.840Z,10.19
2023-02-13T08:38:16.413Z,10.25
2023-02-13T08:40:42.969Z,10.19
2023-02-13T08:43:09.564Z,10.17
2023-02-13T08:45:36.972Z,10.68
2023-02-13T08:48:04.230Z,10.65
2023-02-13T08:50:31.064Z,11.16
2023-02-13T08:52:58.280Z,11.20
2023-02-13T08:55:24.827Z,11.15
2023-02-13T08:57:51.358Z,11.32
2023-02-13T09:00:18.095Z,11.44
2023-02-13T09:02:44.625Z,11.86
2023-02-13T09:05:11.172Z,11.69
2023-02-13T09:07:37.804Z,11.68
2023-02-13T09:10:04.883Z,12.18
2023-02-13T09:12:31.376Z,12.54
2023-02-13T09:14:57.885Z,13.30
2023-02-13T09:17:24.484Z,12.94
2023-02-13T09:19:50.936Z,13.51
2023-02-13T09:22:17.422Z,13.56
2023-02-13T09:24:43.915Z,13.75
2023-02-13T09:27:10.408Z,13.97
2023-02-13T09:29:36.919Z,13.37
2023-02-13T09:32:05.436Z,13.67
2023-02-13T09:34:32.048Z,13.14
2023-02-13T09:36:58.576Z,14.01
2023-02-13T09:39:25.204Z,14.21
2023-02-13T09:41:53.675Z,13.89
2023-02-13T09:44:37.600Z,13.23
2023-02-13T09:47:25.312Z,13.60
2023-02-13T09:50:00.165Z,14.34
2023-02-13T09:52:32.012Z,13.79
2023-02-13T09:54:58.593Z,14.08
2023-02-13T09:57:34.771Z,12.86
2023-02-13T10:00:04.436Z,13.42
2023-02-13T10:02:33.665Z,13.58
2023-02-13T10:05:37.893Z,14.07
2023-02-13T10:08:35.424Z,14.64
2023-02-13T10:11:13.811Z,15.17
2023-02-13T10:14:01.131Z,14.94
2023-02-13T10:16:35.268Z,15.20
2023-02-13T10:19:10.678Z,15.75
2023-02-13T10:21:42.962Z,15.69
2023-02-13T10:24:18.649Z,15.37
2023-02-13T10:26:47.250Z,15.75
2023-02-13T10:29:44.125Z,16.19
2023-02-13T10:32:16.019Z,15.03
2023-02-13T10:34:46.373Z,15.88
2023-02-13T10:37:19.108Z,16.00
2023-02-13T10:39:51.272Z,15.75
2023-02-13T10:42:33.512Z,15.03
2023-02-13T10:45:11.594Z,15.76
2023-02-13T10:47:44.346Z,15.66
2023-02-13T10:50:26.966Z,16.25
2023-02-13T10:53:14.191Z,16.19
2023-02-13T10:56:04.931Z,16.81
2023-02-13T10:58:43.467Z,17.24
2023-02-13T11:01:31.268Z,16.27
2023-02-13T11:04:09.527Z,16.46
2023-02-13T11:06:38.292Z,16.04
2023-02-13T11:09:07.633Z,15.94
2023-02-13T11:11:35.601Z,16.03
2023-02-13T11:14:15.151Z,16.25
2023-02-13T11:17:02.918Z,16.56
2023-02-13T11:19:54.269Z,16.64
2023-02-13T11:22:39.820Z,16.09
2023-02-13T11:25:19.731Z,15.89
2023-02-13T11:27:49.520Z,15.50
2023-02-13T11:30:31.356Z,15.57
2023-02-13T11:33:01.184Z,16.80
2023-02-13T11:35:31.348Z,15.81
2023-02-13T11:38:16.161Z,16.49
2023-02-13T11:40:47.116Z,17.42
2023-02-13T11:43:51.346Z,17.13
2023-02-13T11:46:22.026Z,17.11
2023-02-13T11:49:05.384Z,17.04
2023-02-13T11:51:47.545Z,17.18
2023-02-13T11:54:35.587Z,16.82
2023-02-13T11:57:18.942Z,16.11
2023-02-13T11:59:47.235Z,17.16
2023-02-13T12:02:17.467Z,17.05
2023-02-13T12:04:44.840Z,16.80
2023-02-13T12:07:17.216Z,17.13
2023-02-13T12:09:46.617Z,16.64
2023-02-13T12:12:31.461Z,17.21
2023-02-13T12:14:58.511Z,17.62
2023-02-13T12:17:32.144Z,17.86
2023-02-13T12:19:59.445Z,17.53
2023-02-13T12:22:35.854Z,17.23
2023-02-13T12:25:05.070Z,17.67
2023-02-13T12:27:43.758Z,17.28
2023-02-13T12:30:55.777Z,17.62
2023-02-13T12:34:00.339Z,18.07
2023-02-13T12:36:54.364Z,17.26
2023-02-13T12:39:42.271Z,16.98
2023-02-13T12:42:17.648Z,17.49
2023-02-13T12:44:48.861Z,17.34
2023-02-13T12:47:22.049Z,16.49
2023-02-13T12:49:54.261Z,17.03
2023-02-13T12:52:23.840Z,17.17
2023-02-13T12:55:21.440Z,17.42
2023-02-13T12:57:59.890Z,17.31
2023-02-13T13:00:41.609Z,17.27
2023-02-13T13:03:28.861Z,17.07
2023-02-13T13:06:11.636Z,17.36
2023-02-13T13:08:38.717Z,17.69
2023-02-13T13:11:29.847Z,16.53
2023-02-13T13:14:23.750Z,16.79
2023-02-13T13:17:04.419Z,16.64
2023-02-13T13:19:49.958Z,16.43
2023-02-13T13:22:32.159Z,16.57
2023-02-13T13:25:21.413Z,15.97
2023-02-13T13:27:53.826Z,15.97
2023-02-13T13:30:26.117Z,16.31
2023-02-13T13:32:59.340Z,15.94
2023-02-13T13:35:27.145Z,16.34
2023-02-13T13:38:25.419Z,16.00
2023-02-13T13:41:02.171Z,15.86
2023-02-13T13:43:48.211Z,15.22
2023-02-13T13:46:23.027Z,15.38
2023-02-13T13:49:07.921Z,15.17
2023-02-13T13:51:34.480Z,14.97
2023-02-13T13:54:00.963Z,15.22
2023-02-13T13:56:53.386Z,15.32
2023-02-13T13:59:51.748Z,15.02
2023-02-13T14:02:18.339Z,14.86
2023-02-13T14:05:29.017Z,14.68
2023-02-13T14:07:58.992Z,14.47
2023-02-13T14:10:25.419Z,14.74
2023-02-13T14:12:57.875Z,14.71
2023-02-13T14:15:39.596Z,14.67
2023-02-13T14:18:14.944Z,14.26
2023-02-13T14:20:50.260Z,13.90
2023-02-13T14:23:25.354Z,13.77
2023-02-13T14:26:19.029Z,13.85
2023-02-13T14:28:51.430Z,13.61
2023-02-13T14:31:30.081Z,13.78
2023-02-13T14:34:07.318Z,13.67
2023-02-13T14:36:39.832Z,13.42
2023-02-13T14:39:18.400Z,13.26
2023-02-13T14:41:54.045Z,13.17
2023-02-13T14:44:32.270Z,13.12
2023-02-13T14:47:02.989Z,12.91
2023-02-13T14:49:34.221Z,13.01
2023-02-13T14:52:08.385Z,13.10
2023-02-13T14:54:42.399Z,12.87
2023-02-13T14:57:17.075Z,12.59
2023-02-13T14:59:48.611Z,12.43
2023-02-13T15:02:28.463Z,12.28
2023-02-13T15:05:20.074Z,12.20
2023-02-13T15:07:52.714Z,12.19
2023-02-13T15:10:42.072Z,12.14
2023-02-13T15:13:37.411Z,12.19
2023-02-13T15:16:08.369Z,11.89
2023-02-13T15:18:42.785Z,11.89
2023-02-13T15:21:19.782Z,11.74
2023-02-13T15:23:50.934Z,11.70
2023-02-13T15:26:22.754Z,11.65
2023-02-13T15:29:25.908Z,11.62
2023-02-13T15:31:54.986Z,11.61
2023-02-13T15:34:28.852Z,11.51
2023-02-13T15:36:56.724Z,11.45
2023-02-13T15:39:28.954Z,11.47
2023-02-13T15:41:59.270Z,11.38
2023-02-13T15:44:32.925Z,11.24
2023-02-13T15:47:08.508Z,11.23
2023-02-13T15:49:39.688Z,11.28
2023-02-13T15:52:13.904Z,11.22
2023-02-13T15:54:52.121Z,11.20
2023-02-13T15:57:19.828Z,11.18
2023-02-13T15:59:47.647Z,11.06
2023-02-13T16:02:21.848Z,11.10
2023-02-13T16:04:52.504Z,10.96
2023-02-13T16:07:19.183Z,10.90
2023-02-13T16:09:46.028Z,10.98
2023-02-13T16:12:21.614Z,10.80
2023-02-13T16:14:56.002Z,10.76
2023-02-13T16:17:37.532Z,10.73
2023-02-13T16:20:13.451Z,10.70
2023-02-13T16:22:54.670Z,10.70
2023-02-13T16:25:31.177Z,10.50
2023-02-13T16:28:15.527Z,10.42
2023-02-13T16:30:45.071Z,10.32
2023-02-13T16:33:14.655Z,10.22
2023-02-13T16:35:43.987Z,10.33
2023-02-13T16:38:31.750Z,10.14
2023-02-13T16:41:05.826Z,10.07
2023-02-13T16:43:45.106Z,9.98
2023-02-13T16:46:34.823Z,9.84
2023-02-13T16:49:05.595Z,9.78
2023-02-13T16:51:40.040Z,9.65
2023-02-13T16:54:19.259Z,9.69
2023-02-13T16:56:58.929Z,9.66
2023-02-13T16:59:46.645Z,9.51
2023-02-13T17:02:20.243Z,9.59
2023-02-13T17:04:52.084Z,9.46
2023-02-13T17:07:28.997Z,9.32
2023-02-13T17:10:05.537Z,9.33
2023-02-13T17:12:38.468Z,9.16
2023-02-13T17:15:12.343Z,9.03
2023-02-13T17:17:39.105Z,9.00
2023-02-13T17:20:07.361Z,8.84
2023-02-13T17:22:42.555Z,8.83
2023-02-13T17:25:16.839Z,8.72
2023-02-13T17:27:43.410Z,8.82
2023-02-13T17:30:15.581Z,8.68
2023-02-13T17:32:42.272Z,8.58
2023-02-13T17:35:11.216Z,8.57
2023-02-13T17:37:38.409Z,8.57
2023-02-13T17:40:05.667Z,8.51
2023-02-13T17:42:32.306Z,8.50
2023-02-13T17:44:59.233Z,8.28
2023-02-13T17:47:26.812Z,8.21
2023-02-13T17:49:59.179Z,8.26
2023-02-13T17:52:33.619Z,8.04
2023-02-13T17:55:00.127Z,8.12
2023-02-13T17:57:26.604Z,7.99
2023-02-13T17:59:53.177Z,8.07
2023-02-13T18:02:24.758Z,8.10
2023-02-13T18:04:51.215Z,8.09
2023-02-13T18:07:20.746Z,8.10
2023-02-13T18:09:47.666Z,8.03
2023-02-13T18:12:17.057Z,8.03
2023-02-13T18:14:43.792Z,7.96
2023-02-13T18:17:10.893Z,7.78
2023-02-13T18:19:38.128Z,7.69
2023-02-13T18:22:05.902Z,7.73
2023-02-13T18:24:34.179Z,7.72
2023-02-13T18:27:00.827Z,7.69
2023-02-13T18:29:27.749Z,7.72
2023-02-13T18:31:54.783Z,7.69
2023-02-13T18:34:26.895Z,7.68
2023-02-13T18:36:53.389Z,7.53
2023-02-13T18:39:20.187Z,7.50
2023-02-13T18:41:46.899Z,7.57
2023-02-13T18:44:23.383Z,7.56
2023-02-13T18:46:54.537Z,7.57
2023-02-13T18:49:21.078Z,7.49
2023-02-13T18:51:47.627Z,7.54
2023-02-13T18:54:14.258Z,7.54
2023-02-13T18:56:40.789Z,7.49
2023-02-13T18:59:08.346Z,7.53
2023-02-13T19:01:35.434Z,7.40
2023-02-13T19:04:04.465Z,7.46
2023-02-13T19:06:31.819Z,7.26
2023-02-13T19:09:01.981Z,7.41
2023-02-13T19:11:28.730Z,7.34
2023-02-13T19:13:58.405Z,7.39
2023-02-13T19:16:25.595Z,7.30
2023-02-13T19:18:54.468Z,7.06
2023-02-13T19:21:23.638Z,7.07
2023-02-13T19:23:52.019Z,7.06
2023-02-13T19:26:21.445Z,7.15
2023-02-13T19:28:48.619Z,7.05
2023-02-13T19:31:21.616Z,6.97
2023-02-13T19:33:49.463Z,6.96
2023-02-13T19:36:21.145Z,6.91
2023-02-13T19:38:53.329Z,6.89
2023-02-13T19:41:20.260Z,6.80
2023-02-13T19:43:50.905Z,6.89
2023-02-13T19:46:26.653Z,6.76
2023-02-13T19:48:53.819Z,6.73
2023-02-13T19:51:25.427Z,6.82
2023-02-13T19:53:57.650Z,6.76
2023-02-13T19:56:24.643Z,6.82
2023-02-13T19:58:51.167Z,6.90
2023-02-13T20:01:20.626Z,6.87
2023-02-13T20:03:47.423Z,6.80
2023-02-13T20:06:19.663Z,6.84
2023-02-13T20:08:46.704Z,6.65
2023-02-13T20:11:15.028Z,6.72
2023-02-13T20:13:41.896Z,6.59
2023-02-13T20:16:11.532Z,6.55
2023-02-13T20:18:39.031Z,6.61
2023-02-13T20:21:10.005Z,6.50
2023-02-13T20:23:36.916Z,6.40
2023-02-13T20:26:09.288Z,6.42
2023-02-13T20:28:35.765Z,6.40
2023-02-13T20:31:07.904Z,6.28
2023-02-13T20:33:36.577Z,6.41
2023-02-13T20:36:10.366Z,6.31
2023-02-13T20:38:37.045Z,6.27
2023-02-13T20:41:11.140Z,6.17
2023-02-13T20:43:38.158Z,5.98
2023-02-13T20:46:05.758Z,5.91
2023-02-13T20:48:34.418Z,6.08
2023-02-13T20:51:02.313Z,6.05
2023-02-13T20:53:32.603Z,5.91
2023-02-13T20:56:13.598Z,6.03
2023-02-13T20:58:41.408Z,6.04
2023-02-13T21:01:32.900Z,5.89
2023-02-13T21:03:59.607Z,5.91
2023-02-13T21:06:34.347Z,5.87
2023-02-13T21:09:02.152Z,5.85
2023-02-13T21:11:31.197Z,5.83
2023-02-13T21:13:58.659Z,5.69
2023-02-13T21:16:27.934Z,5.69
2023-02-13T21:18:57.184Z,5.75
2023-02-13T21:21:25.546Z,5.77
2023-02-13T21:23:53.919Z,5.79
2023-02-13T21:26:20.784Z,5.78
2023-02-13T21:28:48.806Z,5.68
2023-02-13T21:31:18.953Z,5.77
2023-02-13T21:33:46.007Z,5.72
2023-02-13T21:36:12.917Z,5.78
2023-02-13T21:38:40.528Z,5.59
2023-02-13T21:41:13.043Z,5.74
2023-02-13T21:43:40.347Z,5.72
2023-02-13T21:46:11.795Z,5.75
2023-02-13T21:48:39.306Z,5.69
2023-02-13T21:51:19.462Z,5.54
2023-02-13T21:53:47.232Z,5.48
2023-02-13T21:56:15.812Z,5.34
2023-02-13T21:58:43.276Z,5.35
2023-02-13T22:01:23.903Z,5.22
2023-02-13T22:03:52.469Z,5.13
2023-02-13T22:06:20.885Z,5.16
2023-02-13T22:08:48.029Z,5.27
2023-02-13T22:11:14.637Z,5.24
2023-02-13T22:13:41.059Z,5.30
2023-02-13T22:16:09.958Z,5.13
2023-02-13T22:18:38.754Z,5.14
2023-02-13T22:21:10.549Z,5.21
2023-02-13T22:23:37.651Z,5.14
2023-02-13T22:26:04.733Z,5.16
2023-02-13T22:28:31.598Z,5.10
2023-02-13T22:30:58.785Z,5.09
2023-02-13T22:33:25.899Z,5.21
2023-02-13T22:35:52.469Z,5.19
2023-02-13T22:38:19.017Z,5.08
2023-02-13T22:40:45.585Z,5.08
2023-02-13T22:43:12.132Z,5.05
2023-02-13T22:45:39.248Z,4.98
2023-02-13T22:48:06.740Z,4.91
2023-02-13T22:50:34.056Z,4.80
2023-02-13T22:53:01.311Z,4.65
2023-02-13T22:55:27.917Z,4.79
2023-02-13T22:57:54.450Z,4.57
2023-02-13T23:00:22.961Z,4.77
2023-02-13T23:02:50.121Z,4.82
2023-02-13T23:05:18.205Z,4.84
2023-02-13T23:07:44.704Z,4.78
2023-02-13T23:10:11.625Z,4.84
2023-02-13T23:12:39.509Z,4.81
2023-02-13T23:15:10.066Z,4.71
2023-02-13T23:17:55.659Z,4.60
2023-02-13T23:20:22.799Z,4.68
2023-02-13T23:22:49.752Z,4.68
2023-02-13T23:25:17.095Z,4.59
2023-02-13T23:27:43.876Z,4.52
2023-02-13T23:30:12.161Z,4.58
2023-02-13T23:32:38.719Z,4.54
2023-02-13T23:35:05.635Z,4.49
2023-02-13T23:37:32.133Z,4.53
2023-02-13T23:39:58.577Z,4.47
2023-02-13T23:42:25.051Z,4.37
2023-02-13T23:44:51.624Z,4.35
2023-02-13T23:47:18.107Z,4.37
2023-02-13T23:49:45.432Z,4.34
2023-02-13T23:52:11.993Z,4.34
2023-02-13T23:54:38.735Z,4.41
2023-02-13T23:57:05.484Z,4.38
2023-02-13T23:59:32.003Z,4.32
